Time;durP1;ratioP1;P1;durP2;ratioP2;P2;SDS_P1;SDS_P2;PMS_P1;PMS_P2;Temp;Humidity;BMP_temperature;BMP_pressure;BME280_temperature;BME280_humidity;BME280_pressure;Samples;Min_cycle;Max_cycle;Signal;HPM_P1;HPM_P2
2021/11/16 00:00:37;;;;;;;26.67;17.17;;;;;;;6.64;100.00;102367.25;4964844;28;20059;-92
2021/11/16 00:03:03;;;;;;;25.95;16.55;;;;;;;6.68;100.00;102357.28;4976500;28;20110;-91
2021/11/16 00:05:28;;;;;;;28.00;17.95;;;;;;;6.58;100.00;102355.94;4958285;28;20534;-91
2021/11/16 00:07:55;;;;;;;27.42;17.20;;;;;;;6.60;100.00;102343.38;4958185;28;20153;-91
2021/11/16 00:10:21;;;;;;;31.52;18.45;;;;;;;6.54;100.00;102341.00;4961564;28;20049;-91
2021/11/16 00:12:46;;;;;;;31.92;18.25;;;;;;;6.56;100.00;102336.44;4975689;28;20027;-92
2021/11/16 00:15:11;;;;;;;28.60;17.23;;;;;;;6.53;100.00;102336.59;4958738;28;20487;-91
2021/11/16 00:17:37;;;;;;;29.15;18.85;;;;;;;6.59;100.00;102331.81;4974870;28;20481;-91
2021/11/16 00:20:06;;;;;;;30.25;18.27;;;;;;;6.60;100.00;102330.88;4974655;28;20029;-91
2021/11/16 00:22:32;;;;;;;26.33;15.95;;;;;;;6.65;100.00;102341.38;4957898;28;20082;-92
2021/11/16 00:27:31;;;;;;;30.08;19.08;;;;;;;6.57;100.00;102333.69;4978328;28;20043;-92
2021/11/16 00:29:57;;;;;;;32.42;18.20;;;;;;;6.59;100.00;102333.63;4962682;28;20035;-90
2021/11/16 00:32:22;;;;;;;29.63;18.15;;;;;;;6.48;100.00;102330.59;4957711;28;20494;-91
2021/11/16 00:34:48;;;;;;;27.70;17.90;;;;;;;6.45;100.00;102320.91;4958409;28;20114;-91
2021/11/16 00:37:14;;;;;;;26.55;17.73;;;;;;;6.52;100.00;102326.81;4958077;28;20487;-91
2021/11/16 00:39:40;;;;;;;29.33;18.27;;;;;;;6.51;100.00;102331.31;4975115;28;20041;-91
2021/11/16 00:42:05;;;;;;;29.65;17.80;;;;;;;6.52;100.00;102329.50;4973851;28;20125;-91
2021/11/16 00:44:31;;;;;;;25.65;15.95;;;;;;;6.48;100.00;102325.25;4975366;28;20027;-91
2021/11/16 00:46:56;;;;;;;23.50;15.80;;;;;;;6.50;100.00;102326.03;4975306;28;20626;-92
2021/11/16 00:49:22;;;;;;;24.05;16.85;;;;;;;6.47;100.00;102319.03;4957776;28;20027;-92
2021/11/16 00:51:47;;;;;;;28.15;17.00;;;;;;;6.31;100.00;102323.34;4963973;28;20089;-92
2021/11/16 00:54:13;;;;;;;23.13;15.27;;;;;;;6.36;100.00;102321.31;4957714;28;20035;-92
2021/11/16 00:56:39;;;;;;;26.60;16.85;;;;;;;6.35;100.00;102323.13;4957761;28;20042;-92
2021/11/16 00:59:05;;;;;;;23.92;15.90;;;;;;;6.37;100.00;102321.25;4975746;28;20142;-92
2021/11/16 01:01:30;;;;;;;24.50;15.60;;;;;;;6.44;100.00;102322.69;4959984;28;20094;-92
2021/11/16 01:03:56;;;;;;;27.17;15.90;;;;;;;6.40;100.00;102322.94;4959478;28;20026;-92
2021/11/16 01:06:21;;;;;;;28.02;16.50;;;;;;;6.43;100.00;102318.31;4974621;28;20030;-92
2021/11/16 01:08:47;;;;;;;25.38;15.95;;;;;;;6.38;100.00;102328.31;4975942;28;20034;-92
2021/11/16 01:11:12;;;;;;;26.50;16.23;;;;;;;6.42;100.00;102319.22;4957200;28;20154;-92
2021/11/16 01:13:38;;;;;;;25.52;15.52;;;;;;;6.28;100.00;102319.00;4957760;28;20030;-92
2021/11/16 01:16:05;;;;;;;24.98;16.08;;;;;;;6.32;100.00;102320.59;4974901;28;20041;-92
2021/11/16 01:18:31;;;;;;;26.85;17.02;;;;;;;6.21;100.00;102320.19;4957162;28;20480;-92
2021/11/16 01:20:57;;;;;;;26.33;16.75;;;;;;;6.20;100.00;102314.00;4981592;28;20039;-92
2021/11/16 01:23:23;;;;;;;27.02;15.85;;;;;;;6.28;100.00;102313.66;4957194;28;20042;-92
2021/11/16 01:25:50;;;;;;;26.67;16.88;;;;;;;6.24;100.00;102314.72;4979190;28;20015;-91
2021/11/16 01:28:22;;;;;;;25.67;17.20;;;;;;;6.21;100.00;102302.38;4974586;28;20103;-91
2021/11/16 01:30:50;;;;;;;26.75;16.35;;;;;;;6.23;100.00;102307.66;4957331;28;20023;-91
2021/11/16 01:36:15;;;;;;;25.13;16.90;;;;;;;6.21;100.00;102297.03;4941256;28;20038;-91
2021/11/16 01:38:42;;;;;;;24.90;15.57;;;;;;;6.17;100.00;102299.91;4974065;28;20138;-91
2021/11/16 01:41:09;;;;;;;24.92;16.30;;;;;;;6.19;100.00;102300.72;4972697;28;20138;-91
2021/11/16 01:43:35;;;;;;;25.00;14.90;;;;;;;6.28;100.00;102305.66;4972804;28;20121;-91
2021/11/16 01:46:04;;;;;;;23.98;15.75;;;;;;;6.28;100.00;102305.66;4963933;28;20062;-91
2021/11/16 01:48:30;;;;;;;25.25;16.35;;;;;;;6.27;100.00;102306.56;4973545;28;20026;-91
2021/11/16 01:50:57;;;;;;;23.60;15.25;;;;;;;6.21;100.00;102301.50;4956316;28;20027;-91
2021/11/16 01:53:23;;;;;;;25.40;14.32;;;;;;;6.16;100.00;102308.88;4973767;28;20038;-90
2021/11/16 01:55:49;;;;;;;23.80;16.92;;;;;;;6.21;100.00;102310.41;4956168;28;20031;-91
2021/11/16 01:58:14;;;;;;;24.23;16.60;;;;;;;6.24;100.00;102316.53;4973671;28;20038;-91
2021/11/16 02:00:42;;;;;;;24.63;16.65;;;;;;;6.22;100.00;102311.28;4974108;28;20062;-91
2021/11/16 02:03:10;;;;;;;23.08;16.52;;;;;;;6.20;100.00;102308.66;4973560;28;20035;-91
2021/11/16 02:05:48;;;;;;;25.08;16.90;;;;;;;6.33;100.00;102305.41;4956079;28;20030;-91
2021/11/16 02:08:15;;;;;;;22.80;14.95;;;;;;;6.33;100.00;102298.25;4956228;28;20450;-91
2021/11/16 02:10:43;;;;;;;23.27;15.60;;;;;;;6.38;100.00;102303.41;4956249;28;20030;-92
2021/11/16 02:13:09;;;;;;;27.27;17.23;;;;;;;6.38;100.00;102293.59;4981548;28;20435;-91
2021/11/16 02:15:37;;;;;;;22.55;15.02;;;;;;;6.28;100.00;102292.28;4956097;28;20031;-91
2021/11/16 02:18:05;;;;;;;24.48;15.30;;;;;;;6.21;100.00;102286.34;4957346;28;20118;-91
2021/11/16 02:20:31;;;;;;;26.45;16.80;;;;;;;6.30;100.00;102293.06;4979155;28;20037;-91
2021/11/16 02:22:57;;;;;;;25.08;15.20;;;;;;;6.28;100.00;102286.94;4955060;28;20038;-91
2021/11/16 02:25:22;;;;;;;23.27;15.43;;;;;;;6.33;100.00;102286.72;4973438;28;20035;-91
2021/11/16 02:27:49;;;;;;;22.73;15.40;;;;;;;6.21;100.00;102290.81;4972478;28;20472;-92
2021/11/16 02:30:14;;;;;;;22.85;15.43;;;;;;;6.26;100.00;102280.78;4973708;28;20035;-92
2021/11/16 02:32:44;;;;;;;22.92;15.52;;;;;;;6.26;100.00;102266.56;4972684;28;20058;-92
2021/11/16 02:35:09;;;;;;;24.90;16.30;;;;;;;6.22;100.00;102271.19;4955962;28;20035;-92
2021/11/16 02:37:35;;;;;;;24.73;16.60;;;;;;;6.30;100.00;102269.03;4973060;28;20027;-92
2021/11/16 02:40:01;;;;;;;24.40;17.15;;;;;;;6.31;100.00;102261.91;4956119;28;20086;-92
2021/11/16 02:42:27;;;;;;;26.52;15.93;;;;;;;6.25;100.00;102255.03;4980029;28;20023;-92
2021/11/16 02:44:53;;;;;;;25.73;15.63;;;;;;;6.29;100.00;102261.94;4973478;28;20027;-92
2021/11/16 02:47:18;;;;;;;24.88;16.48;;;;;;;6.34;100.00;102257.28;4973094;28;20627;-92
2021/11/16 02:49:44;;;;;;;22.42;15.20;;;;;;;6.35;100.00;102255.47;4972098;28;20057;-92
2021/11/16 02:52:14;;;;;;;21.95;15.50;;;;;;;6.29;100.00;102245.06;4955436;28;20026;-92
2021/11/16 02:54:40;;;;;;;24.33;16.23;;;;;;;6.18;100.00;102249.09;4971560;28;20047;-92
2021/11/16 02:57:08;;;;;;;22.50;15.05;;;;;;;6.28;100.00;102249.53;4971816;28;20065;-91
2021/11/16 02:59:34;;;;;;;25.33;16.35;;;;;;;6.26;100.00;102253.22;4955682;28;20175;-92
2021/11/16 03:02:00;;;;;;;21.98;15.15;;;;;;;6.27;100.00;102247.78;4972844;28;20105;-91
2021/11/16 03:04:25;;;;;;;22.05;15.80;;;;;;;6.29;100.00;102250.41;4972401;28;20046;-92
2021/11/16 03:06:51;;;;;;;19.50;14.27;;;;;;;6.21;100.00;102250.75;4972522;28;20077;-91
2021/11/16 03:09:17;;;;;;;21.00;15.07;;;;;;;6.21;100.00;102248.06;4955058;28;20431;-91
2021/11/16 03:11:42;;;;;;;21.33;14.75;;;;;;;6.14;100.00;102246.63;4961305;28;20011;-91
2021/11/16 03:14:08;;;;;;;24.27;15.57;;;;;;;6.18;100.00;102233.06;4965891;28;20173;-91
2021/11/16 03:16:33;;;;;;;22.38;15.18;;;;;;;6.13;100.00;102239.56;4956289;28;20110;-91
2021/11/16 03:19:00;;;;;;;23.20;15.50;;;;;;;6.20;100.00;102238.34;4955063;28;20129;-91
2021/11/16 03:21:26;;;;;;;23.45;15.80;;;;;;;6.22;100.00;102233.78;4955490;28;20034;-91
2021/11/16 03:23:56;;;;;;;27.27;17.05;;;;;;;6.21;100.00;102234.72;4954910;28;20038;-91
2021/11/16 03:26:23;;;;;;;23.60;16.80;;;;;;;6.24;100.00;102236.38;4972834;28;20450;-91
2021/11/16 03:28:51;;;;;;;24.45;16.95;;;;;;;6.20;100.00;102231.19;4972544;28;20235;-91
2021/11/16 03:31:28;;;;;;;25.90;17.08;;;;;;;6.14;100.00;102235.94;4972258;28;20031;-91
2021/11/16 03:33:55;;;;;;;22.70;16.20;;;;;;;6.17;100.00;102227.78;4971043;28;20039;-92
2021/11/16 03:36:22;;;;;;;25.40;16.35;;;;;;;6.18;100.00;102233.06;4972320;28;20030;-92
2021/11/16 03:38:48;;;;;;;25.05;16.73;;;;;;;6.19;100.00;102224.13;4954980;28;20030;-92
2021/11/16 03:41:15;;;;;;;22.25;15.90;;;;;;;6.26;100.00;102218.47;4980706;28;20022;-92
2021/11/16 03:43:41;;;;;;;23.48;16.05;;;;;;;6.25;100.00;102222.09;4970952;28;20057;-92
2021/11/16 03:46:07;;;;;;;25.42;17.42;;;;;;;6.21;100.00;102221.34;4971988;28;20048;-92
2021/11/16 03:48:32;;;;;;;24.95;16.23;;;;;;;6.22;100.00;102218.63;4957487;28;20725;-92
2021/11/16 03:50:58;;;;;;;26.40;18.48;;;;;;;6.19;100.00;102213.44;4962176;28;20031;-91
2021/11/16 03:53:23;;;;;;;25.35;17.40;;;;;;;6.17;100.00;102209.09;4954517;28;20026;-91
2021/11/16 03:55:49;;;;;;;26.60;17.70;;;;;;;6.16;100.00;102216.25;4962518;28;20038;-91
2021/11/16 03:58:18;;;;;;;26.73;17.95;;;;;;;6.09;100.00;102213.91;4974737;28;20031;-91
2021/11/16 04:00:54;;;;;;;28.50;18.00;;;;;;;6.08;100.00;102213.03;4971817;28;20118;-91
2021/11/16 04:03:23;;;;;;;25.63;16.75;;;;;;;6.20;100.00;102208.94;4955077;28;20042;-91
2021/11/16 04:05:49;;;;;;;26.63;17.75;;;;;;;6.19;100.00;102207.22;4972244;28;20077;-92
2021/11/16 04:08:14;;;;;;;28.80;19.02;;;;;;;6.12;100.00;102217.34;4970682;28;20035;-91
2021/11/16 04:10:40;;;;;;;26.38;17.35;;;;;;;6.12;100.00;102222.69;4955355;28;20027;-91
2021/11/16 04:13:05;;;;;;;29.00;19.65;;;;;;;6.17;100.00;102227.78;4984372;28;20031;-91
2021/11/16 04:15:33;;;;;;;27.33;19.33;;;;;;;6.20;100.00;102222.31;4971511;28;20035;-92
2021/11/16 04:17:59;;;;;;;34.15;21.00;;;;;;;6.21;100.00;102222.25;4954150;28;20082;-91
2021/11/16 04:20:34;;;;;;;27.92;19.02;;;;;;;6.18;100.00;102218.81;4972886;28;20027;-91
2021/11/16 04:23:02;;;;;;;33.08;20.40;;;;;;;6.16;100.00;102224.25;4971757;28;20031;-92
2021/11/16 04:25:27;;;;;;;29.20;18.52;;;;;;;6.18;100.00;102216.16;4970627;28;20023;-92
2021/11/16 04:27:54;;;;;;;27.33;20.25;;;;;;;6.15;100.00;102217.19;4972586;28;20383;-91
2021/11/16 04:30:22;;;;;;;29.90;20.67;;;;;;;6.10;100.00;102211.19;4954185;28;20031;-91
2021/11/16 04:32:48;;;;;;;30.80;21.35;;;;;;;6.08;100.00;102215.72;4971436;28;20038;-91
2021/11/16 04:35:15;;;;;;;29.30;20.63;;;;;;;6.19;100.00;102212.56;4953986;28;20034;-91
2021/11/16 04:37:43;;;;;;;27.35;19.95;;;;;;;6.16;100.00;102204.69;4980080;28;20038;-92
2021/11/16 04:40:11;;;;;;;32.17;20.98;;;;;;;6.20;100.00;102200.94;4955228;28;20030;-91
2021/11/16 04:42:37;;;;;;;28.17;20.20;;;;;;;6.19;100.00;102191.19;4971210;28;20030;-92
2021/11/16 04:45:10;;;;;;;30.20;20.30;;;;;;;6.17;100.00;102190.38;4954544;28;20030;-92
2021/11/16 04:47:45;;;;;;;30.48;21.27;;;;;;;6.16;100.00;102202.03;4975158;28;20496;-92
2021/11/16 04:50:24;;;;;;;32.38;22.00;;;;;;;6.12;100.00;102190.63;4958874;28;20031;-92
2021/11/16 04:53:17;;;;;;;30.92;21.50;;;;;;;6.18;100.00;102197.44;4957526;28;20041;-92
2021/11/16 05:03:55;;;;;;;34.90;23.00;;;;;;;6.10;100.00;102184.47;4944736;28;20053;-92
2021/11/16 05:06:21;;;;;;;32.38;22.95;;;;;;;6.06;100.00;102193.56;4995414;28;20049;-92
2021/11/16 05:08:48;;;;;;;33.13;21.83;;;;;;;6.12;100.00;102192.41;4970336;28;20504;-91
2021/11/16 05:11:15;;;;;;;32.60;21.85;;;;;;;6.15;100.00;102195.81;4975403;28;20023;-92
2021/11/16 05:13:43;;;;;;;35.92;22.40;;;;;;;6.10;100.00;102189.81;4960216;28;20031;-92
2021/11/16 05:16:11;;;;;;;34.47;21.95;;;;;;;6.07;100.00;102184.63;4982645;28;20034;-91
2021/11/16 05:18:37;;;;;;;35.63;23.40;;;;;;;6.11;100.00;102188.00;4974017;28;20073;-92
2021/11/16 05:21:02;;;;;;;35.00;22.73;;;;;;;6.05;100.00;102182.94;4974768;28;20034;-92
2021/11/16 05:23:28;;;;;;;33.47;22.77;;;;;;;6.06;100.00;102190.00;4957583;28;20045;-92
2021/11/16 05:25:54;;;;;;;32.95;21.75;;;;;;;6.07;100.00;102181.09;4959544;28;20105;-92
2021/11/16 05:28:21;;;;;;;36.47;22.52;;;;;;;6.05;100.00;102189.16;4976158;28;20031;-92
2021/11/16 05:30:48;;;;;;;33.80;23.05;;;;;;;6.07;100.00;102179.28;4975369;28;20054;-92
2021/11/16 05:33:13;;;;;;;31.67;22.58;;;;;;;6.10;100.00;102176.47;4974575;28;20034;-92
2021/11/16 05:35:39;;;;;;;38.67;23.33;;;;;;;5.97;100.00;102173.50;4980328;28;20049;-92
2021/11/16 09:28:34;;;;;;;40.75;26.92;;;;;;;6.42;100.00;102061.81;2994259;23;20595;31
2021/11/16 09:40:39;;;;;;;40.13;26.40;;;;;;;6.57;100.00;102057.53;4334314;23;20025;-91
2021/11/16 10:57:25;;;;;;;44.10;24.98;;;;;;;6.74;100.00;102013.91;5132636;23;20054;-91
2021/11/16 11:00:08;;;;;;;37.28;26.23;;;;;;;6.76;100.00;102010.19;4951657;23;20063;-91
2021/11/16 11:02:56;;;;;;;33.88;24.52;;;;;;;6.61;100.00;102017.22;4914691;29;20032;-92
2021/11/16 11:08:40;;;;;;;37.42;24.33;;;;;;;6.50;100.00;102008.88;1796930;23;20263;-90
2021/11/16 11:19:04;;;;;;;33.78;24.10;;;;;;;6.55;100.00;102000.59;4968418;28;20058;-91
2021/11/16 11:24:20;;;;;;;32.20;22.33;;;;;;;6.63;100.00;101993.91;5046628;23;20069;-91
2021/11/16 11:26:57;;;;;;;35.03;24.23;;;;;;;6.60;100.00;101987.88;4988017;28;20430;-90
2021/11/16 11:29:36;;;;;;;32.88;24.70;;;;;;;6.58;100.00;101985.28;4968677;28;20580;-91
2021/11/16 11:32:24;;;;;;;29.60;22.80;;;;;;;6.60;100.00;101986.06;4989876;28;20061;-91
2021/11/16 12:03:56;;;;;;;36.55;23.60;;;;;;;6.49;100.00;101931.44;3218046;23;20044;31
2021/11/16 12:18:57;;;;;;;40.10;23.52;;;;;;;6.60;100.00;101903.19;4979008;23;20574;-91
2021/11/16 12:52:11;;;;;;;36.45;24.05;;;;;;;6.45;100.00;101861.25;5109769;23;20063;31
2021/11/16 13:14:02;;;;;;;41.15;23.65;;;;;;;6.45;100.00;101827.38;5219829;23;20149;-92
2021/11/16 13:28:01;;;;;;;40.17;25.60;;;;;;;6.44;100.00;101812.28;5792440;23;20021;31
2021/11/16 13:30:31;;;;;;;36.70;24.08;;;;;;;6.42;100.00;101811.50;5418256;23;20062;-92
2021/11/16 14:16:54;;;;;;;37.20;22.25;;;;;;;6.06;100.00;101768.06;4342550;23;19924;-91
2021/11/16 15:30:37;;;;;;;50.33;30.60;;;;;;;5.56;100.00;101759.06;3834800;23;20052;-91
2021/11/16 16:54:05;;;;;;;46.63;28.23;;;;;;;5.03;100.00;101690.63;5187817;23;22124;-92
2021/11/16 17:33:25;;;;;;;57.17;32.60;;;;;;;4.71;100.00;101694.88;5670253;23;20024;31
2021/11/16 19:58:11;;;;;;;86.05;44.00;;;;;;;4.80;100.00;101595.81;6135714;23;20017;-93
2021/11/16 20:00:37;;;;;;;78.97;40.40;;;;;;;4.93;100.00;101598.72;4951966;28;20059;-93
2021/11/16 20:03:04;;;;;;;74.07;39.13;;;;;;;4.91;100.00;101588.16;4934656;29;20032;-92
2021/11/16 20:05:31;;;;;;;73.97;40.63;;;;;;;4.95;100.00;101588.84;4933271;29;20028;-92
2021/11/16 20:07:56;;;;;;;65.28;36.33;;;;;;;4.99;100.00;101582.41;4919167;29;20130;-93
2021/11/16 20:10:23;;;;;;;85.85;42.28;;;;;;;4.82;100.00;101578.81;4951420;28;20095;-93
2021/11/16 20:12:50;;;;;;;69.13;37.55;;;;;;;4.90;100.00;101581.09;4950736;28;20055;-93
2021/11/16 20:15:17;;;;;;;79.28;41.80;;;;;;;4.78;100.00;101577.25;4938931;29;20024;-94
2021/11/16 20:17:48;;;;;;;90.15;42.88;;;;;;;4.80;100.00;101575.34;4972313;28;20030;-93
2021/11/16 20:20:14;;;;;;;70.40;38.30;;;;;;;4.81;100.00;101568.25;4966448;28;20051;-93
2021/11/16 20:22:40;;;;;;;81.95;41.47;;;;;;;4.82;100.00;101561.97;4938817;29;20087;-93
2021/11/16 20:25:07;;;;;;;81.80;41.60;;;;;;;4.75;100.00;101558.75;4955829;28;20039;-92
2021/11/16 20:27:34;;;;;;;75.80;40.72;;;;;;;4.75;100.00;101566.75;4938732;29;20118;-93
2021/11/16 20:30:00;;;;;;;92.25;44.45;;;;;;;4.70;100.00;101563.44;4937205;29;20042;-92
2021/11/16 20:32:31;;;;;;;84.30;42.88;;;;;;;4.72;100.00;101564.25;4936763;28;20031;-92
2021/11/16 20:35:05;;;;;;;105.50;45.03;;;;;;;4.74;100.00;101561.50;4941326;29;20031;-92
2021/11/16 20:37:35;;;;;;;80.53;39.17;;;;;;;4.76;100.00;101564.94;4937888;29;20038;-92
2021/11/16 20:40:13;;;;;;;84.05;41.90;;;;;;;4.71;100.00;101561.66;4952715;29;20123;-93
2021/11/16 20:59:14;;;;;;;95.60;44.63;;;;;;;4.77;100.00;101545.34;4950119;29;20106;-92
2021/11/16 21:01:40;;;;;;;95.05;45.83;;;;;;;4.82;100.00;101546.84;4955071;29;20039;-93
2021/11/16 21:04:06;;;;;;;86.70;42.85;;;;;;;4.81;100.00;101538.94;4938881;29;20134;-92
2021/11/16 21:06:35;;;;;;;100.97;44.83;;;;;;;4.71;100.00;101535.84;4938860;29;20803;-92
2021/11/16 21:09:01;;;;;;;87.47;44.42;;;;;;;4.79;100.00;101533.66;4954909;29;20034;-92
2021/11/16 21:11:27;;;;;;;87.75;44.28;;;;;;;4.78;100.00;101525.78;4955360;28;20111;-93
2021/11/16 21:13:52;;;;;;;94.93;45.20;;;;;;;4.77;100.00;101529.34;4955399;28;20121;-92
2021/11/16 21:16:18;;;;;;;107.93;46.65;;;;;;;4.78;100.00;101531.09;4958183;28;20019;-92
2021/11/16 21:18:43;;;;;;;93.40;45.33;;;;;;;4.80;100.00;101532.72;4938554;29;20513;-92
2021/11/16 21:21:12;;;;;;;95.15;45.08;;;;;;;4.78;100.00;101528.44;4956553;29;20038;-92
2021/11/16 21:23:40;;;;;;;92.28;45.45;;;;;;;4.87;100.00;101525.28;4966083;28;20151;-92
2021/11/16 21:26:06;;;;;;;133.75;52.15;;;;;;;4.76;100.00;101527.66;4938484;29;20035;-93
2021/11/16 21:28:32;;;;;;;96.88;45.80;;;;;;;4.84;100.00;101533.44;4953774;28;20031;-92
2021/11/16 21:30:59;;;;;;;87.93;43.15;;;;;;;4.79;100.00;101527.47;4938750;29;20027;-92
2021/11/16 21:33:24;;;;;;;93.18;47.33;;;;;;;4.79;100.00;101511.50;4954495;28;20034;-92
2021/11/16 21:35:50;;;;;;;109.70;47.45;;;;;;;4.76;100.00;101512.50;4955871;28;20110;-93
2021/11/16 21:38:15;;;;;;;92.88;46.00;;;;;;;4.79;100.00;101508.84;4938631;29;20059;-92
2021/11/16 21:40:41;;;;;;;120.70;49.05;;;;;;;4.65;100.00;101509.53;4940110;29;20415;-93
2021/11/16 21:43:07;;;;;;;101.10;47.65;;;;;;;4.71;100.00;101501.22;4942283;29;20023;-93
2021/11/16 21:45:33;;;;;;;117.78;51.42;;;;;;;4.67;100.00;101501.47;4957354;28;20066;-93
2021/11/16 21:47:59;;;;;;;157.70;57.78;;;;;;;4.59;100.00;101496.53;4957322;28;20027;-93
2021/11/16 21:50:24;;;;;;;120.68;51.38;;;;;;;4.53;100.00;101497.72;4959882;28;20090;-93
2021/11/16 21:52:50;;;;;;;112.47;52.38;;;;;;;4.59;100.00;101492.09;4951955;28;20087;-93
2021/11/16 21:55:15;;;;;;;110.35;50.10;;;;;;;4.64;100.00;101496.31;4981755;28;20044;-93
2021/11/16 21:57:41;;;;;;;126.00;51.90;;;;;;;4.48;100.00;101488.25;4947625;29;20070;-92
2021/11/16 22:00:08;;;;;;;117.82;50.75;;;;;;;4.58;100.00;101486.81;4957967;29;20102;-92
2021/11/16 22:02:33;;;;;;;107.90;51.08;;;;;;;4.65;100.00;101484.69;4938309;29;20543;-93
2021/11/16 22:05:06;;;;;;;112.18;50.78;;;;;;;4.57;100.00;101479.78;4956946;28;20199;-92
2021/11/16 22:10:15;;;;;;;106.72;51.55;;;;;;;4.54;100.00;101480.78;4955951;29;20042;-92
2021/11/16 22:12:41;;;;;;;120.13;54.20;;;;;;;4.55;100.00;101474.50;4955777;29;20496;-93
2021/11/16 22:15:07;;;;;;;170.88;61.55;;;;;;;4.50;100.00;101475.69;4938000;29;20067;-92
2021/11/16 22:17:33;;;;;;;123.30;57.22;;;;;;;4.53;100.00;101465.75;4937357;29;20063;-92
2021/11/16 22:19:59;;;;;;;123.72;57.60;;;;;;;4.47;100.00;101463.41;4953870;29;20038;-92
2021/11/16 22:22:25;;;;;;;148.73;57.95;;;;;;;4.42;100.00;101457.44;4942047;29;20407;-93
2021/11/16 22:24:51;;;;;;;125.50;55.97;;;;;;;4.50;100.00;101467.69;4953863;28;20031;-93
2021/11/16 22:27:16;;;;;;;125.88;56.22;;;;;;;4.51;100.00;101458.78;4938603;29;20838;-93
2021/11/16 22:29:48;;;;;;;117.65;53.08;;;;;;;4.52;100.00;101463.16;4938999;29;20042;-93
2021/11/16 22:32:14;;;;;;;170.02;58.80;;;;;;;4.48;100.00;101465.13;4954301;29;20031;-93
2021/11/16 22:34:46;;;;;;;124.55;54.75;;;;;;;4.47;100.00;101463.41;4953799;29;20031;-93
2021/11/16 22:37:12;;;;;;;115.40;51.75;;;;;;;4.48;100.00;101451.81;4955960;29;20046;-93
2021/11/16 22:39:37;;;;;;;115.18;53.00;;;;;;;4.48;100.00;101446.47;4954022;28;20399;-93
2021/11/16 22:42:03;;;;;;;110.22;51.22;;;;;;;4.48;100.00;101443.81;4954203;28;20042;-93
2021/11/16 22:44:29;;;;;;;114.70;49.08;;;;;;;4.44;100.00;101441.38;4958107;28;20034;-93
2021/11/16 22:46:56;;;;;;;130.25;53.15;;;;;;;4.34;100.00;101443.66;4965593;28;20031;-92
2021/11/16 22:49:22;;;;;;;114.03;49.15;;;;;;;4.44;100.00;101442.25;4937140;29;20031;-92
2021/11/16 22:51:47;;;;;;;115.00;51.35;;;;;;;4.45;100.00;101432.47;4937988;29;20038;-92
2021/11/16 22:54:12;;;;;;;112.57;49.97;;;;;;;4.49;100.00;101442.00;4952924;28;20034;-92
2021/11/16 22:56:38;;;;;;;115.68;50.70;;;;;;;4.46;100.00;101436.84;4954004;28;20035;-92
